createdAt,value
2022-10-28T00:00:35.447Z,15.43
2022-10-28T00:02:40.819Z,15.51
2022-10-28T00:04:45.019Z,15.59
2022-10-28T00:06:48.210Z,15.40
2022-10-28T00:08:52.482Z,15.43
2022-10-28T00:11:03.511Z,15.46
2022-10-28T00:13:09.606Z,15.50
2022-10-28T00:15:12.697Z,15.50
2022-10-28T00:17:15.487Z,15.49
2022-10-28T00:19:18.928Z,15.52
2022-10-28T00:21:27.970Z,15.57
2022-10-28T00:23:30.946Z,15.52
2022-10-28T00:25:33.705Z,15.50
2022-10-28T00:27:36.581Z,15.50
2022-10-28T00:29:39.411Z,15.50
2022-10-28T00:31:42.968Z,15.57
2022-10-28T00:33:46.235Z,15.57
2022-10-28T00:35:48.994Z,15.59
2022-10-28T00:37:55.135Z,15.64
2022-10-28T00:39:57.876Z,15.64
2022-10-28T00:42:03.555Z,15.67
2022-10-28T00:44:43.722Z,15.68
2022-10-28T00:46:48.930Z,15.67
2022-10-28T00:48:55.649Z,15.71
2022-10-28T00:50:58.967Z,15.74
2022-10-28T00:53:06.036Z,15.73
2022-10-28T00:55:10.323Z,15.74
2022-10-28T00:57:17.027Z,15.73
2022-10-28T00:59:23.868Z,15.75
2022-10-28T01:01:26.818Z,15.75
2022-10-28T01:03:29.680Z,15.79
2022-10-28T01:05:34.821Z,15.80
2022-10-28T01:07:37.741Z,15.76
2022-10-28T01:09:42.248Z,15.74
2022-10-28T01:11:55.707Z,15.74
2022-10-28T01:14:19.269Z,15.76
2022-10-28T01:16:30.703Z,15.74
2022-10-28T01:18:43.386Z,15.73
2022-10-28T01:21:25.725Z,15.69
2022-10-28T01:23:36.280Z,15.70
2022-10-28T01:26:08.428Z,15.74
2022-10-28T01:28:52.819Z,15.76
2022-10-28T01:31:30.984Z,15.79
2022-10-28T01:33:39.037Z,15.78
2022-10-28T01:35:50.057Z,15.79
2022-10-28T01:38:05.619Z,15.80
2022-10-28T01:40:13.610Z,15.82
2022-10-28T01:42:26.516Z,15.82
2022-10-28T01:44:35.183Z,15.82
2022-10-28T01:46:44.764Z,15.85
2022-10-28T01:48:52.355Z,15.85
2022-10-28T01:51:00.843Z,15.83
2022-10-28T01:53:08.386Z,15.84
2022-10-28T01:55:16.635Z,15.83
2022-10-28T01:57:20.839Z,15.83
2022-10-28T01:59:27.494Z,15.82
2022-10-28T02:01:32.638Z,15.83
2022-10-28T02:03:37.081Z,15.84
2022-10-28T02:05:45.040Z,15.82
2022-10-28T02:07:48.660Z,15.80
2022-10-28T02:10:02.688Z,15.77
2022-10-28T02:12:20.700Z,15.78
2022-10-28T02:14:39.308Z,15.79
2022-10-28T02:16:49.807Z,15.79
2022-10-28T02:19:04.054Z,15.79
2022-10-28T02:21:15.889Z,15.79
2022-10-28T02:23:24.907Z,15.80
2022-10-28T02:25:34.379Z,15.79
2022-10-28T02:27:45.838Z,15.79
2022-10-28T02:29:54.739Z,15.79
2022-10-28T02:32:02.586Z,15.81
2022-10-28T02:34:11.009Z,15.82
2022-10-28T02:36:17.305Z,15.81
2022-10-28T02:38:24.051Z,15.82
2022-10-28T02:40:30.403Z,15.81
2022-10-28T02:42:37.505Z,15.81
2022-10-28T02:44:45.004Z,15.81
2022-10-28T02:46:51.238Z,15.80
2022-10-28T02:48:58.151Z,15.75
2022-10-28T02:51:09.406Z,15.74
2022-10-28T02:53:16.575Z,15.75
2022-10-28T02:55:21.562Z,15.74
2022-10-28T02:57:27.012Z,15.76
2022-10-28T02:59:30.597Z,15.74
2022-10-28T03:01:33.587Z,15.70
2022-10-28T03:03:36.496Z,15.73
2022-10-28T03:05:39.322Z,15.79
2022-10-28T03:07:43.457Z,15.76
2022-10-28T03:09:46.236Z,15.60
2022-10-28T03:11:49.012Z,15.64
2022-10-28T03:13:51.813Z,15.71
2022-10-28T03:15:54.642Z,15.74
2022-10-28T03:17:57.384Z,15.79
2022-10-28T03:20:00.179Z,15.77
2022-10-28T03:22:03.001Z,15.80
2022-10-28T03:24:07.936Z,15.84
2022-10-28T03:26:10.778Z,15.83
2022-10-28T03:28:13.547Z,15.83
2022-10-28T03:30:18.353Z,15.85
2022-10-28T03:34:24.964Z,15.82
2022-10-28T03:36:27.943Z,15.80
2022-10-28T03:38:30.650Z,15.87
2022-10-28T03:40:35.178Z,15.92
2022-10-28T03:42:40.418Z,15.89
2022-10-28T03:44:44.099Z,15.93
2022-10-28T03:46:46.872Z,15.93
2022-10-28T03:48:49.656Z,15.98
2022-10-28T03:50:53.734Z,16.03
2022-10-28T03:52:56.477Z,15.99
2022-10-28T03:54:59.263Z,16.08
2022-10-28T03:57:03.487Z,16.15
2022-10-28T03:59:06.263Z,16.21
2022-10-28T04:01:09.252Z,16.26
2022-10-28T04:03:12.152Z,16.25
2022-10-28T04:05:15.011Z,16.31
2022-10-28T04:07:17.746Z,16.31
2022-10-28T04:09:20.492Z,16.34
2022-10-28T04:11:23.290Z,16.35
2022-10-28T04:13:27.427Z,16.39
2022-10-28T04:15:30.321Z,16.42
2022-10-28T04:17:35.761Z,16.34
2022-10-28T04:19:38.620Z,16.30
2022-10-28T04:21:41.473Z,16.29
2022-10-28T04:23:44.319Z,16.32
2022-10-28T04:25:47.139Z,16.32
2022-10-28T04:27:50.352Z,16.30
2022-10-28T04:29:54.597Z,16.30
2022-10-28T04:31:57.343Z,16.24
2022-10-28T04:34:00.110Z,16.21
2022-10-28T04:36:02.897Z,16.17
2022-10-28T04:38:05.712Z,16.07
2022-10-28T04:40:09.705Z,16.01
2022-10-28T04:42:12.511Z,15.94
2022-10-28T04:44:15.321Z,15.96
2022-10-28T04:46:19.438Z,15.98
2022-10-28T04:48:22.480Z,16.08
2022-10-28T04:50:33.863Z,16.11
2022-10-28T04:52:46.119Z,16.09
2022-10-28T04:54:49.023Z,16.11
2022-10-28T04:56:51.808Z,16.09
2022-10-28T04:58:54.564Z,16.10
2022-10-28T05:00:57.438Z,16.04
2022-10-28T05:03:03.619Z,16.02
2022-10-28T05:05:07.467Z,15.97
2022-10-28T05:07:10.439Z,15.91
2022-10-28T05:09:13.508Z,15.77
2022-10-28T05:11:16.366Z,15.66
2022-10-28T05:13:19.972Z,15.65
2022-10-28T05:15:22.763Z,15.65
2022-10-28T05:17:25.707Z,15.65
2022-10-28T05:19:29.876Z,15.64
2022-10-28T05:21:32.668Z,15.62
2022-10-28T05:23:35.477Z,15.61
2022-10-28T05:25:38.401Z,15.60
2022-10-28T05:27:41.505Z,15.61
2022-10-28T05:29:44.369Z,15.52
2022-10-28T05:31:47.454Z,15.52
2022-10-28T05:33:50.273Z,15.53
2022-10-28T05:35:54.474Z,15.58
2022-10-28T05:37:57.454Z,15.51
2022-10-28T05:40:00.270Z,15.47
2022-10-28T05:42:03.048Z,15.44
2022-10-28T05:44:06.528Z,15.43
2022-10-28T05:46:10.565Z,15.41
2022-10-28T05:48:13.521Z,15.34
2022-10-28T05:50:18.254Z,15.34
2022-10-28T05:52:22.481Z,15.36
2022-10-28T05:54:25.375Z,15.34
2022-10-28T05:56:28.285Z,15.35
2022-10-28T05:58:31.238Z,15.36
2022-10-28T06:00:36.230Z,15.38
2022-10-28T06:02:39.302Z,15.39
2022-10-28T06:04:42.122Z,15.41
2022-10-28T06:06:44.963Z,15.43
2022-10-28T06:08:49.186Z,15.43
2022-10-28T06:10:55.111Z,15.41
2022-10-28T06:12:57.901Z,15.42
2022-10-28T06:15:00.977Z,15.49
2022-10-28T06:17:03.765Z,15.53
2022-10-28T06:19:06.515Z,15.58
2022-10-28T06:21:09.475Z,15.53
2022-10-28T06:23:12.299Z,15.47
2022-10-28T06:25:17.256Z,15.36
2022-10-28T06:27:20.023Z,15.38
2022-10-28T06:29:22.750Z,15.42
2022-10-28T06:31:25.532Z,15.41
2022-10-28T06:33:28.264Z,15.47
2022-10-28T06:35:31.020Z,15.59
2022-10-28T06:37:33.780Z,15.66
2022-10-28T06:39:38.346Z,15.70
2022-10-28T06:41:42.502Z,15.63
2022-10-28T06:43:45.248Z,15.68
2022-10-28T06:45:53.405Z,15.69
2022-10-28T06:47:58.577Z,15.73
2022-10-28T06:50:01.353Z,15.75
2022-10-28T06:52:04.809Z,15.80
2022-10-28T06:54:07.832Z,15.80
2022-10-28T06:56:11.225Z,15.73
2022-10-28T06:58:15.364Z,15.67
2022-10-28T07:00:18.479Z,15.69
2022-10-28T07:02:23.077Z,15.73
2022-10-28T07:04:25.835Z,15.76
2022-10-28T07:06:28.582Z,15.77
2022-10-28T07:08:31.367Z,15.77
2022-10-28T07:10:34.151Z,15.82
2022-10-28T07:12:37.248Z,15.83
2022-10-28T07:14:41.452Z,15.87
2022-10-28T07:16:44.270Z,15.83
2022-10-28T07:18:47.089Z,15.86
2022-10-28T07:20:50.303Z,15.89
2022-10-28T07:22:57.235Z,15.96
2022-10-28T07:25:00.004Z,15.97
2022-10-28T07:27:02.720Z,15.98
2022-10-28T07:29:06.274Z,16.00
2022-10-28T07:33:14.099Z,16.00
2022-10-28T07:35:17.031Z,16.02
2022-10-28T07:37:19.775Z,16.03
2022-10-28T07:39:22.865Z,16.10
2022-10-28T07:41:26.480Z,16.10
2022-10-28T07:43:29.230Z,16.08
2022-10-28T07:45:32.359Z,16.08
2022-10-28T07:47:36.558Z,16.10
2022-10-28T07:49:39.287Z,16.08
2022-10-28T07:51:42.075Z,16.10
2022-10-28T07:53:44.893Z,16.12
2022-10-28T07:55:55.993Z,16.16
2022-10-28T07:57:59.491Z,16.16
2022-10-28T08:00:02.381Z,16.21
2022-10-28T08:02:17.510Z,16.23
2022-10-28T08:04:21.717Z,16.28
2022-10-28T08:06:24.522Z,16.27
2022-10-28T08:08:27.271Z,16.27
2022-10-28T08:10:30.099Z,16.30
2022-10-28T08:12:32.878Z,16.32
2022-10-28T08:14:36.311Z,16.36
2022-10-28T08:16:39.111Z,16.38
2022-10-28T08:18:41.906Z,16.37
2022-10-28T08:20:45.961Z,16.40
2022-10-28T08:22:48.979Z,16.45
2022-10-28T08:24:51.774Z,16.47
2022-10-28T08:26:55.591Z,16.55
2022-10-28T08:29:01.367Z,16.58
2022-10-28T08:31:09.412Z,16.58
2022-10-28T08:33:12.648Z,16.63
2022-10-28T08:35:15.559Z,16.64
2022-10-28T08:37:19.794Z,16.71
2022-10-28T08:39:22.641Z,16.78
2022-10-28T08:41:35.938Z,16.81
2022-10-28T08:43:59.022Z,16.79
2022-10-28T08:46:09.752Z,16.88
2022-10-28T08:48:21.155Z,16.93
2022-10-28T08:50:27.720Z,16.97
2022-10-28T08:52:36.740Z,16.97
2022-10-28T08:54:47.351Z,17.04
2022-10-28T08:56:54.854Z,17.06
2022-10-28T08:59:01.204Z,17.06
2022-10-28T09:01:10.242Z,17.07
2022-10-28T09:03:18.171Z,17.00
2022-10-28T09:05:23.292Z,17.05
2022-10-28T09:07:26.347Z,17.10
2022-10-28T09:09:30.796Z,17.16
2022-10-28T09:12:01.724Z,17.24
2022-10-28T09:14:17.996Z,17.20
2022-10-28T09:16:33.202Z,17.24
2022-10-28T09:18:51.242Z,17.25
2022-10-28T09:20:56.050Z,17.28
2022-10-28T09:23:00.535Z,17.28
2022-10-28T09:25:13.562Z,17.28
2022-10-28T09:27:39.934Z,17.32
2022-10-28T09:29:51.350Z,17.32
2022-10-28T09:31:59.825Z,17.32
2022-10-28T09:34:13.160Z,17.38
2022-10-28T09:36:20.125Z,17.43
2022-10-28T09:38:28.122Z,17.41
2022-10-28T09:40:36.022Z,17.48
2022-10-28T09:42:44.545Z,17.59
2022-10-28T09:44:51.377Z,17.73
2022-10-28T09:46:57.938Z,17.79
2022-10-28T09:49:04.451Z,17.92
2022-10-28T09:51:07.505Z,17.91
2022-10-28T09:53:16.150Z,17.93
2022-10-28T09:55:22.024Z,17.99
2022-10-28T09:57:32.742Z,18.08
2022-10-28T09:59:35.900Z,18.10
2022-10-28T10:01:40.943Z,18.07
2022-10-28T10:03:45.178Z,18.06
2022-10-28T10:05:51.450Z,18.08
2022-10-28T10:07:57.638Z,18.12
2022-10-28T10:10:05.443Z,18.17
2022-10-28T10:12:11.302Z,18.32
2022-10-28T10:14:20.312Z,18.36
2022-10-28T10:16:40.642Z,18.40
2022-10-28T10:18:48.535Z,18.37
2022-10-28T10:20:53.482Z,18.37
2022-10-28T10:22:56.512Z,18.37
2022-10-28T10:25:00.094Z,18.31
2022-10-28T10:27:13.726Z,18.38
2022-10-28T10:29:18.173Z,18.37
2022-10-28T10:31:23.013Z,18.51
2022-10-28T10:33:28.314Z,18.61
2022-10-28T10:35:33.531Z,18.64
2022-10-28T10:37:37.454Z,18.52
2022-10-28T10:39:40.244Z,18.45
2022-10-28T10:41:45.464Z,18.57
2022-10-28T10:43:48.425Z,18.57
2022-10-28T10:46:02.764Z,18.69
2022-10-28T10:48:14.451Z,18.83
2022-10-28T10:52:38.153Z,19.02
2022-10-28T10:54:41.405Z,19.08
2022-10-28T10:56:44.395Z,19.14
2022-10-28T10:58:52.530Z,19.28
2022-10-28T11:01:00.646Z,19.42
2022-10-28T11:03:05.691Z,19.39
2022-10-28T11:05:11.432Z,19.45
2022-10-28T11:07:16.909Z,19.46
2022-10-28T11:09:24.116Z,19.56
2022-10-28T11:11:34.539Z,19.57
2022-10-28T11:13:40.071Z,19.58
2022-10-28T11:16:01.762Z,19.60
2022-10-28T11:18:16.777Z,19.61
2022-10-28T11:20:24.831Z,19.78
2022-10-28T11:22:41.454Z,19.83
2022-10-28T11:25:01.818Z,19.85
2022-10-28T11:27:16.975Z,19.79
2022-10-28T11:29:19.642Z,19.86
2022-10-28T11:31:44.751Z,19.95
2022-10-28T11:33:57.737Z,19.99
2022-10-28T11:36:07.521Z,19.86
2022-10-28T11:38:24.518Z,19.93
2022-10-28T11:40:34.739Z,20.06
2022-10-28T11:42:48.009Z,20.06
2022-10-28T11:44:55.705Z,20.18
2022-10-28T11:47:17.203Z,20.16
2022-10-28T11:49:48.058Z,20.25
2022-10-28T11:51:56.049Z,20.16
2022-10-28T11:54:16.973Z,20.12
2022-10-28T11:56:30.102Z,20.22
2022-10-28T11:58:42.116Z,20.15
2022-10-28T12:00:55.895Z,20.33
2022-10-28T12:03:11.496Z,20.34
2022-10-28T12:05:21.013Z,20.40
2022-10-28T12:07:44.129Z,20.36
2022-10-28T12:09:58.299Z,20.42
2022-10-28T12:12:12.604Z,20.43
2022-10-28T12:14:23.437Z,20.42
2022-10-28T12:16:33.093Z,20.48
2022-10-28T12:18:48.038Z,20.48
2022-10-28T12:20:55.571Z,20.50
2022-10-28T12:23:01.741Z,20.60
2022-10-28T12:25:14.307Z,20.66
2022-10-28T12:27:23.014Z,20.73
2022-10-28T12:29:28.735Z,20.78
2022-10-28T12:31:35.670Z,20.80
2022-10-28T12:33:46.592Z,20.83
2022-10-28T12:35:55.230Z,20.84
2022-10-28T12:38:04.301Z,20.78
2022-10-28T12:40:15.086Z,20.82
2022-10-28T12:42:22.695Z,20.70
2022-10-28T12:44:28.097Z,20.70
2022-10-28T12:46:44.632Z,20.79
2022-10-28T12:48:54.920Z,20.80
2022-10-28T12:51:04.489Z,20.89
2022-10-28T12:53:23.580Z,20.99
2022-10-28T12:55:34.255Z,20.97
2022-10-28T12:57:40.403Z,20.97
2022-10-28T12:59:47.304Z,21.08
2022-10-28T13:01:51.738Z,21.09
2022-10-28T13:03:55.952Z,20.92
2022-10-28T13:06:17.894Z,20.91
2022-10-28T13:08:47.236Z,21.06
2022-10-28T13:10:59.315Z,20.95
2022-10-28T13:13:36.326Z,20.99
2022-10-28T13:16:11.323Z,21.07
2022-10-28T13:18:41.349Z,21.12
2022-10-28T13:20:52.454Z,21.03
2022-10-28T13:23:17.300Z,21.01
2022-10-28T13:25:45.379Z,21.03
2022-10-28T13:27:48.918Z,21.08
2022-10-28T13:29:54.798Z,21.08
2022-10-28T13:31:57.748Z,21.06
2022-10-28T13:34:01.212Z,21.12
2022-10-28T13:36:19.436Z,21.19
2022-10-28T13:38:26.735Z,21.25
2022-10-28T13:41:09.139Z,21.25
2022-10-28T13:43:20.460Z,21.34
2022-10-28T13:45:49.823Z,21.20
2022-10-28T13:47:52.729Z,21.21
2022-10-28T13:50:41.475Z,21.30
2022-10-28T13:52:47.330Z,21.26
2022-10-28T13:54:55.808Z,21.23
2022-10-28T13:57:06.747Z,21.24
2022-10-28T13:59:22.306Z,21.23
2022-10-28T14:02:01.372Z,21.38
2022-10-28T14:04:05.679Z,21.31
2022-10-28T14:06:08.635Z,21.25
2022-10-28T14:08:21.434Z,21.25
2022-10-28T14:10:26.468Z,21.40
2022-10-28T14:12:32.697Z,21.31
2022-10-28T14:14:35.664Z,21.34
2022-10-28T14:16:40.561Z,21.23
2022-10-28T14:18:45.289Z,21.24
2022-10-28T14:21:00.555Z,21.22
2022-10-28T14:23:36.857Z,21.21
2022-10-28T14:26:05.390Z,21.27
2022-10-28T14:28:41.852Z,21.23
2022-10-28T14:31:20.887Z,21.24
2022-10-28T14:33:23.708Z,21.20
2022-10-28T14:35:34.055Z,21.18
2022-10-28T14:38:11.990Z,21.20
2022-10-28T14:40:31.907Z,21.21
2022-10-28T14:42:52.897Z,21.20
2022-10-28T14:45:16.135Z,21.18
2022-10-28T14:47:37.440Z,21.25
2022-10-28T14:49:42.860Z,21.19
2022-10-28T14:51:46.685Z,21.16
2022-10-28T14:53:53.027Z,21.19
2022-10-28T14:56:01.082Z,21.17
2022-10-28T14:58:21.814Z,21.15
2022-10-28T15:00:28.902Z,21.12
2022-10-28T15:02:34.461Z,21.14
2022-10-28T15:04:39.260Z,21.09
2022-10-28T15:06:43.717Z,21.06
2022-10-28T15:08:46.856Z,20.99
2022-10-28T15:10:50.573Z,21.00
2022-10-28T15:12:56.389Z,21.01
2022-10-28T15:15:00.794Z,20.94
2022-10-28T15:17:15.541Z,20.86
2022-10-28T15:19:21.223Z,20.82
2022-10-28T15:21:23.987Z,20.87
2022-10-28T15:23:26.851Z,20.81
2022-10-28T15:25:29.749Z,20.77
2022-10-28T15:27:34.553Z,20.70
2022-10-28T15:29:37.460Z,20.69
2022-10-28T15:32:07.060Z,20.67
2022-10-28T15:34:30.296Z,20.63
2022-10-28T15:36:33.371Z,20.61
2022-10-28T15:38:39.989Z,20.57
2022-10-28T15:40:43.069Z,20.59
2022-10-28T15:42:52.225Z,20.57
2022-10-28T15:44:56.494Z,20.51
2022-10-28T15:47:00.758Z,20.50
2022-10-28T15:49:04.869Z,20.46
2022-10-28T15:51:15.245Z,20.45
2022-10-28T15:53:32.104Z,20.42
2022-10-28T15:55:41.611Z,20.37
2022-10-28T15:57:59.928Z,20.38
2022-10-28T16:00:24.645Z,20.36
2022-10-28T16:02:43.109Z,20.33
2022-10-28T16:04:47.376Z,20.34
2022-10-28T16:06:52.700Z,20.31
2022-10-28T16:09:02.503Z,20.30
2022-10-28T16:11:14.671Z,20.34
2022-10-28T16:13:21.616Z,20.29
2022-10-28T16:15:24.524Z,20.21
2022-10-28T16:17:30.288Z,20.25
2022-10-28T16:19:37.165Z,20.18
2022-10-28T16:21:41.310Z,20.12
2022-10-28T16:23:44.255Z,20.10
2022-10-28T16:25:47.205Z,20.03
2022-10-28T16:27:52.452Z,20.00
2022-10-28T16:29:55.419Z,20.00
2022-10-28T16:31:58.211Z,19.92
2022-10-28T16:34:01.061Z,19.97
2022-10-28T16:36:05.292Z,19.87
2022-10-28T16:38:17.256Z,19.88
2022-10-28T16:40:45.585Z,19.90
2022-10-28T16:42:43.144Z,19.90
2022-10-28T16:44:46.137Z,19.98
2022-10-28T16:46:48.945Z,19.96
2022-10-28T16:48:51.694Z,19.97
2022-10-28T16:50:56.671Z,19.94
2022-10-28T16:52:59.402Z,19.90
2022-10-28T16:55:03.643Z,19.90
2022-10-28T16:57:06.373Z,19.83
2022-10-28T16:59:09.151Z,19.78
2022-10-28T17:01:12.654Z,19.78
2022-10-28T17:03:15.803Z,19.68
2022-10-28T17:05:20.701Z,19.62
2022-10-28T17:07:23.703Z,19.61
2022-10-28T17:09:26.409Z,19.62
2022-10-28T17:13:34.988Z,19.59
2022-10-28T17:15:37.706Z,19.59
2022-10-28T17:17:40.723Z,19.56
2022-10-28T17:19:45.548Z,19.57
2022-10-28T17:21:48.298Z,19.53
2022-10-28T17:23:51.107Z,19.48
2022-10-28T17:25:57.257Z,19.48
2022-10-28T17:28:01.551Z,19.47
2022-10-28T17:30:05.589Z,19.45
2022-10-28T17:32:09.260Z,19.43
2022-10-28T17:34:12.331Z,19.45
2022-10-28T17:36:15.164Z,19.43
2022-10-28T17:38:17.929Z,19.39
2022-10-28T17:40:20.710Z,19.36
2022-10-28T17:42:23.587Z,19.36
2022-10-28T17:44:27.701Z,19.34
2022-10-28T17:46:30.456Z,19.30
2022-10-28T17:48:33.561Z,19.26
2022-10-28T17:50:36.293Z,19.27
2022-10-28T17:52:39.061Z,19.23
2022-10-28T17:54:41.786Z,19.21
2022-10-28T17:56:45.270Z,19.18
2022-10-28T17:58:48.023Z,19.10
2022-10-28T18:00:57.265Z,19.07
2022-10-28T18:03:00.144Z,19.03
2022-10-28T18:05:02.985Z,18.97
2022-10-28T18:07:05.954Z,18.97
2022-10-28T18:09:11.527Z,18.98
2022-10-28T18:11:16.286Z,18.97
2022-10-28T18:13:19.050Z,18.92
2022-10-28T18:15:21.876Z,18.97
2022-10-28T18:17:25.978Z,18.92
2022-10-28T18:19:28.718Z,18.88
2022-10-28T18:21:31.569Z,18.86
2022-10-28T18:23:34.339Z,18.83
2022-10-28T18:25:37.212Z,18.83
2022-10-28T18:27:41.241Z,18.80
2022-10-28T18:29:44.060Z,18.78
2022-10-28T18:31:48.033Z,18.78
2022-10-28T18:33:52.584Z,18.77
2022-10-28T18:35:58.456Z,18.64
2022-10-28T18:38:01.523Z,18.66
2022-10-28T18:40:04.903Z,18.64
2022-10-28T18:42:09.679Z,18.63
2022-10-28T18:44:19.938Z,18.58
2022-10-28T18:46:23.204Z,18.60
2022-10-28T18:48:25.993Z,18.58
2022-10-28T18:50:31.819Z,18.54
2022-10-28T18:52:34.617Z,18.51
2022-10-28T18:54:37.445Z,18.46
2022-10-28T18:56:42.514Z,18.47
2022-10-28T18:58:50.375Z,18.46
2022-10-28T19:00:53.147Z,18.48
2022-10-28T19:02:55.945Z,18.51
2022-10-28T19:04:59.051Z,18.53
2022-10-28T19:07:03.264Z,18.51
2022-10-28T19:09:06.068Z,18.48
2022-10-28T19:11:10.930Z,18.46
2022-10-28T19:13:13.704Z,18.43
2022-10-28T19:15:17.245Z,18.43
2022-10-28T19:17:20.056Z,18.43
2022-10-28T19:19:22.786Z,18.42
2022-10-28T19:21:26.625Z,18.43
2022-10-28T19:23:31.078Z,18.45
2022-10-28T19:25:33.839Z,18.38
2022-10-28T19:27:36.634Z,18.38
2022-10-28T19:29:39.450Z,18.38
2022-10-28T19:31:43.379Z,18.37
2022-10-28T19:33:46.282Z,18.37
2022-10-28T19:35:49.062Z,18.35
2022-10-28T19:37:53.312Z,18.35
2022-10-28T19:39:57.484Z,18.31
2022-10-28T19:42:00.310Z,18.29
2022-10-28T19:44:04.189Z,18.32
2022-10-28T19:46:10.193Z,18.26
2022-10-28T19:48:12.926Z,18.23
2022-10-28T19:50:15.867Z,18.24
2022-10-28T19:52:18.707Z,18.17
2022-10-28T19:54:21.496Z,18.14
2022-10-28T19:56:26.187Z,18.13
2022-10-28T19:58:29.603Z,18.07
2022-10-28T20:00:32.338Z,18.01
2022-10-28T20:02:35.303Z,18.01
2022-10-28T20:04:38.189Z,18.02
2022-10-28T20:06:41.584Z,18.02
2022-10-28T20:08:46.481Z,18.04
2022-10-28T20:10:57.946Z,18.03
2022-10-28T20:13:02.298Z,17.99
2022-10-28T20:15:06.251Z,17.96
2022-10-28T20:17:09.209Z,17.95
2022-10-28T20:19:12.456Z,17.92
2022-10-28T20:21:16.475Z,17.91
2022-10-28T20:23:19.267Z,17.89
2022-10-28T20:25:22.011Z,17.90
2022-10-28T20:27:25.154Z,17.85
2022-10-28T20:29:29.271Z,17.85
2022-10-28T20:31:33.118Z,17.84
2022-10-28T20:33:37.249Z,17.89
2022-10-28T20:35:39.975Z,17.88
2022-10-28T20:37:42.825Z,17.88
2022-10-28T20:39:46.294Z,17.93
2022-10-28T20:41:51.041Z,17.89
2022-10-28T20:43:55.068Z,17.86
2022-10-28T20:46:00.667Z,17.80
2022-10-28T20:48:03.538Z,17.82
2022-10-28T20:50:07.012Z,17.80
2022-10-28T20:52:09.866Z,17.78
2022-10-28T20:54:12.726Z,17.76
2022-10-28T20:56:17.320Z,17.73
2022-10-28T20:58:24.952Z,17.72
2022-10-28T21:00:27.788Z,17.66
2022-10-28T21:02:32.372Z,17.64
2022-10-28T21:04:35.233Z,17.58
2022-10-28T21:06:39.062Z,17.60
2022-10-28T21:08:42.209Z,17.59
2022-10-28T21:10:44.947Z,17.60
2022-10-28T21:12:47.668Z,17.61
2022-10-28T21:14:50.410Z,17.61
2022-10-28T21:16:53.159Z,17.55
2022-10-28T21:18:57.824Z,17.53
2022-10-28T21:21:01.236Z,17.51
2022-10-28T21:23:04.457Z,17.50
2022-10-28T21:25:08.318Z,17.50
2022-10-28T21:27:11.065Z,17.44
2022-10-28T21:29:13.809Z,17.33
2022-10-28T21:31:18.012Z,17.31
2022-10-28T21:33:20.786Z,17.32
2022-10-28T21:35:26.725Z,17.35
2022-10-28T21:37:29.459Z,17.32
2022-10-28T21:39:32.227Z,17.32
2022-10-28T21:41:35.192Z,17.31
2022-10-28T21:43:40.123Z,17.28
2022-10-28T21:45:42.844Z,17.25
2022-10-28T21:47:45.824Z,17.23
2022-10-28T21:49:48.592Z,17.23
2022-10-28T21:51:52.686Z,17.23
2022-10-28T21:53:55.453Z,17.21
2022-10-28T21:56:03.702Z,17.20
2022-10-28T21:58:06.454Z,17.18
2022-10-28T22:00:10.961Z,17.16
2022-10-28T22:02:16.921Z,17.17
2022-10-28T22:04:19.720Z,17.13
2022-10-28T22:06:23.090Z,17.09
2022-10-28T22:08:27.522Z,17.08
2022-10-28T22:10:30.275Z,17.05
2022-10-28T22:12:33.051Z,17.02
2022-10-28T22:14:35.857Z,16.99
2022-10-28T22:16:38.743Z,16.99
2022-10-28T22:18:41.834Z,16.97
2022-10-28T22:20:44.635Z,16.95
2022-10-28T22:22:47.415Z,16.90
2022-10-28T22:24:51.546Z,16.93
2022-10-28T22:26:54.288Z,16.88
2022-10-28T22:28:57.304Z,16.86
2022-10-28T22:31:00.215Z,16.84
2022-10-28T22:33:02.975Z,16.81
2022-10-28T22:35:06.855Z,16.81
2022-10-28T22:37:09.717Z,16.78
2022-10-28T22:39:12.486Z,16.75
2022-10-28T22:41:18.594Z,16.77
2022-10-28T22:43:21.375Z,16.74
2022-10-28T22:45:24.296Z,16.71
2022-10-28T22:47:27.137Z,16.67
2022-10-28T22:49:29.872Z,16.66
2022-10-28T22:51:32.817Z,16.65
2022-10-28T22:53:35.570Z,16.63
2022-10-28T22:55:38.334Z,16.62
2022-10-28T22:57:42.448Z,16.62
2022-10-28T22:59:45.190Z,16.59
2022-10-28T23:01:48.246Z,16.58
2022-10-28T23:03:52.988Z,16.54
2022-10-28T23:05:55.755Z,16.54
2022-10-28T23:08:00.067Z,16.54
2022-10-28T23:10:03.020Z,16.54
2022-10-28T23:12:06.266Z,16.60
2022-10-28T23:14:10.397Z,16.62
2022-10-28T23:16:15.280Z,16.65
2022-10-28T23:18:18.142Z,16.66
2022-10-28T23:20:22.358Z,16.70
2022-10-28T23:22:25.109Z,16.70
2022-10-28T23:24:27.859Z,16.71
2022-10-28T23:26:30.965Z,16.72
2022-10-28T23:28:33.693Z,16.74
2022-10-28T23:30:37.790Z,16.79
2022-10-28T23:32:41.260Z,16.79
2022-10-28T23:34:43.996Z,16.81
2022-10-28T23:36:46.767Z,16.82
2022-10-28T23:38:49.536Z,16.84
2022-10-28T23:40:59.460Z,16.88
2022-10-28T23:43:02.252Z,16.85
2022-10-28T23:45:05.912Z,16.86
2022-10-28T23:47:10.225Z,16.85
2022-10-28T23:49:12.994Z,16.83
2022-10-28T23:51:15.773Z,16.84
2022-10-28T23:53:19.014Z,16.85
2022-10-28T23:55:21.784Z,16.83
2022-10-28T23:57:24.630Z,16.81
2022-10-28T23:59:27.397Z,16.76
